This is the latest recevied weather packets stored in our database for station/object VE3MJM-WX. If no packets are shown the sender has not sent any weather packets the latest 10 day(s).
| Time | Temp. | Humidity | Pressure | Rain* | Wind** | Luminosity | Snow |
|---|---|---|---|---|---|---|---|
| 1777520882 | 5.56° C | 86% | 1005.5 hPa | 0 mm | - | - | - |
| 1777519980 | 5.56° C | 87% | 1005.6 hPa | 0 mm | - | - | - |
| 1777519077 | 6.11° C | 86% | 1005.5 hPa | 0 mm | - | - | - |
| 1777518175 | 6.11° C | 85% | 1005.3 hPa | 0 mm | - | - | - |
| 1777517272 | 6.11° C | 86% | 1005.4 hPa | 0 mm | - | - | - |
| 1777516370 | 6.67° C | 84% | 1005.5 hPa | 0 mm | - | - | - |
| 1777515467 | 6.67° C | 80% | 1005.4 hPa | 0 mm | - | - | - |
| 1777514565 | 6.67° C | 83% | 1005.1 hPa | 0 mm | - | - | - |
| 1777513662 | 7.22° C | 84% | 1005.2 hPa | 0 mm | - | - | - |
| 1777512759 | 7.22° C | 84% | 1004.9 hPa | 0 mm | - | - | - |
| 1777511857 | 7.22° C | 85% | 1004.3 hPa | 0 mm | - | - | - |
| 1777510954 | 7.22° C | 83% | 1004.5 hPa | 0 mm | - | - | - |
| 1777510052 | 8.33° C | 72% | 1004.3 hPa | 0 mm | - | - | - |
| 1777509149 | 8.33° C | 72% | 1004.1 hPa | 0 mm | - | - | - |
| 1777508247 | 8.89° C | 71% | 1003.8 hPa | 0 mm | - | - | - |
| 1777507344 | 8.89° C | 73% | 1004.2 hPa | 0 mm | - | - | - |
| 1777506442 | 9.44° C | 71% | 1003.8 hPa | 0 mm | - | - | - |
| 1777505539 | 9.44° C | 74% | 1003.6 hPa | 0 mm | - | - | - |
| 1777504637 | 9.44° C | 76% | 1003.6 hPa | 0 mm | - | - | - |
| 1777503734 | 9.44° C | 77% | 1003.6 hPa | 0 mm | - | - | - |
| 1777502831 | 9.44° C | 77% | 1003.6 hPa | 0 mm | - | - | - |
| 1777501929 | 9.44° C | 76% | 1003.5 hPa | 0 mm | - | - | - |
| 1777501026 | 10° C | 74% | 1003.2 hPa | 0 mm | - | - | - |
| 1777500124 | 9.44° C | 76% | 1003.3 hPa | 0 mm | - | - | - |
| 1777499221 | 9.44° C | 78% | 1003.3 hPa | 0 mm | - | - | - |
* Rain latest hour (hover to see other rain measurements)
** Current wind speed in m/s (hover to see current wind gust speed)